Time;durP1;ratioP1;P1;durP2;ratioP2;P2;SDS_P1;SDS_P2;PMS_P1;PMS_P2;Temp;Humidity;BMP_temperature;BMP_pressure;BME280_temperature;BME280_humidity;BME280_pressure;Samples;Min_cycle;Max_cycle;Signal;HPM_P1;HPM_P2
2022/02/25 00:00:24;;;;;;;2.70;0.90;;;5.20;99.90;;;;;;5075178;28;20043;-53
2022/02/25 00:03:49;;;;;;;1.98;0.70;;;5.20;99.90;;;;;;5088374;28;20052;-52
2022/02/25 00:07:14;;;;;;;0.73;0.60;;;5.20;99.90;;;;;;5079314;28;20097;-55
2022/02/25 00:10:40;;;;;;;0.75;0.70;;;5.10;99.90;;;;;;5075437;28;20404;-55
2022/02/25 00:14:05;;;;;;;2.92;0.90;;;5.00;99.90;;;;;;5048359;28;20033;-52
2022/02/25 00:17:30;;;;;;;2.47;0.80;;;5.00;99.90;;;;;;5084130;28;20032;-55
2022/02/25 00:20:56;;;;;;;0.60;0.60;;;5.00;99.90;;;;;;5075482;28;20024;-53
2022/02/25 00:24:21;;;;;;;0.90;0.52;;;4.90;99.90;;;;;;5069377;28;20078;-55
2022/02/25 00:27:47;;;;;;;0.95;0.55;;;4.80;99.90;;;;;;5074541;28;20047;-55
2022/02/25 00:31:12;;;;;;;1.02;0.98;;;4.70;99.90;;;;;;5062194;28;20025;-55
2022/02/25 00:34:37;;;;;;;0.63;0.40;;;4.70;99.90;;;;;;5050867;28;20044;-54
2022/02/25 00:38:03;;;;;;;1.02;0.55;;;4.70;99.90;;;;;;5085541;28;20411;-54
2022/02/25 00:41:28;;;;;;;0.47;0.47;;;4.70;99.90;;;;;;5079670;28;20033;-50
2022/02/25 00:44:53;;;;;;;1.08;0.55;;;4.70;99.90;;;;;;5086294;28;20491;-55
2022/02/25 00:48:19;;;;;;;0.82;0.75;;;4.70;99.90;;;;;;5091527;28;20039;-56
2022/02/25 00:51:44;;;;;;;1.45;0.55;;;4.60;99.90;;;;;;5084330;28;20503;-55
2022/02/25 00:55:09;;;;;;;2.47;0.80;;;4.60;99.90;;;;;;5078210;28;20032;-57
2022/02/25 00:58:35;;;;;;;2.25;0.50;;;4.60;99.90;;;;;;5080198;28;20040;-54
2022/02/25 01:02:00;;;;;;;0.88;0.77;;;4.70;99.90;;;;;;5086103;28;20129;-57
2022/02/25 01:05:26;;;;;;;0.88;0.57;;;4.60;99.90;;;;;;5062019;28;20032;-57
2022/02/25 01:08:51;;;;;;;1.45;0.60;;;4.50;99.90;;;;;;5051088;28;20051;-54
2022/02/25 01:12:16;;;;;;;2.15;0.70;;;4.40;99.90;;;;;;5079375;28;20054;-55
2022/02/25 01:15:42;;;;;;;3.22;0.75;;;4.40;99.90;;;;;;5069188;28;20041;-54
2022/02/25 01:19:07;;;;;;;4.45;0.85;;;4.30;99.90;;;;;;5079621;28;20040;-56
2022/02/25 01:22:32;;;;;;;2.45;1.30;;;4.30;99.90;;;;;;5084827;28;20055;-57
2022/02/25 01:25:58;;;;;;;3.40;1.02;;;4.30;99.90;;;;;;5074617;28;20097;-56
2022/02/25 01:29:38;;;;;;;4.07;0.80;;;4.40;99.90;;;;;;5083019;28;20044;-57
2022/02/25 01:33:03;;;;;;;1.45;0.60;;;4.30;99.90;;;;;;5090416;28;20513;-55
2022/02/25 01:36:29;;;;;;;1.00;0.60;;;4.30;99.90;;;;;;5069943;28;20082;-55
2022/02/25 01:39:54;;;;;;;2.10;0.73;;;4.30;99.90;;;;;;5077405;28;20040;-56
2022/02/25 01:43:26;;;;;;;3.08;0.98;;;4.40;99.90;;;;;;5066618;28;20052;-56
2022/02/25 01:46:51;;;;;;;1.38;0.55;;;4.40;99.90;;;;;;5084448;28;20458;-55
2022/02/25 01:50:16;;;;;;;3.35;0.90;;;4.40;99.90;;;;;;5077111;28;20035;-53
2022/02/25 01:53:42;;;;;;;3.20;0.70;;;4.40;99.90;;;;;;5079023;28;20399;-54
2022/02/25 01:57:07;;;;;;;4.97;1.27;;;4.30;99.90;;;;;;5078709;28;20044;-53
2022/02/25 02:00:33;;;;;;;1.88;0.90;;;4.10;99.90;;;;;;5069689;28;20090;-56
2022/02/25 02:03:58;;;;;;;4.30;0.82;;;3.80;99.90;;;;;;5078490;28;20047;-53
2022/02/25 02:07:23;;;;;;;2.28;0.93;;;3.60;99.90;;;;;;5085094;28;20055;-53
2022/02/25 02:10:49;;;;;;;3.45;0.70;;;3.50;99.90;;;;;;5067303;28;20044;-56
2022/02/25 02:14:16;;;;;;;6.22;0.85;;;3.50;99.90;;;;;;5078631;28;20044;-55
2022/02/25 02:17:40;;;;;;;3.58;1.00;;;3.60;99.90;;;;;;5085142;28;20167;-54
2022/02/25 02:21:05;;;;;;;2.75;1.08;;;3.70;99.90;;;;;;5070150;28;20040;-53
2022/02/25 02:24:30;;;;;;;2.75;1.00;;;3.80;99.90;;;;;;5078464;28;20152;-55
2022/02/25 02:31:20;;;;;;;2.38;0.82;;;4.00;99.90;;;;;;5075714;28;20035;-54
2022/02/25 02:34:45;;;;;;;2.15;1.00;;;4.00;99.90;;;;;;5083920;28;20487;-54
2022/02/25 02:38:11;;;;;;;4.10;1.13;;;4.00;99.90;;;;;;5089613;28;20036;-54
2022/02/25 02:41:36;;;;;;;1.90;1.02;;;4.10;99.90;;;;;;5080059;28;20040;-56
2022/02/25 02:45:01;;;;;;;3.38;1.15;;;4.10;99.90;;;;;;5083364;28;20040;-55
2022/02/25 02:48:26;;;;;;;2.53;1.23;;;4.10;99.90;;;;;;5049367;28;20037;-54
2022/02/25 02:51:52;;;;;;;1.90;0.88;;;4.20;99.90;;;;;;5084442;28;20036;-56
2022/02/25 02:55:17;;;;;;;4.15;1.23;;;4.20;99.90;;;;;;5081572;28;20122;-57
2022/02/25 02:58:42;;;;;;;1.05;0.93;;;4.20;99.90;;;;;;5049044;28;20396;-56
2022/02/25 03:02:08;;;;;;;3.38;0.90;;;4.10;99.90;;;;;;5083041;28;20036;-54
2022/02/25 03:05:33;;;;;;;2.65;1.20;;;4.00;99.90;;;;;;5081528;28;20736;-54
2022/02/25 03:08:59;;;;;;;1.88;0.80;;;4.00;99.90;;;;;;5077755;28;20040;-52
2022/02/25 03:12:24;;;;;;;4.75;1.13;;;3.90;99.90;;;;;;5081982;28;20036;-54
2022/02/25 03:15:49;;;;;;;5.65;1.23;;;3.70;99.90;;;;;;5072760;28;20575;-56
2022/02/25 03:19:15;;;;;;;4.53;1.50;;;3.40;99.90;;;;;;5085407;28;20032;-53
2022/02/25 03:22:40;;;;;;;4.90;1.10;;;3.30;99.90;;;;;;5085433;28;20047;-56
2022/02/25 03:26:07;;;;;;;2.60;1.10;;;3.40;99.90;;;;;;5071551;28;20049;-57
2022/02/25 03:29:31;;;;;;;5.00;1.30;;;3.30;99.90;;;;;;5077193;28;20488;-54
2022/02/25 03:32:56;;;;;;;2.13;0.93;;;3.30;99.90;;;;;;5077487;28;20090;-56
2022/02/25 03:36:22;;;;;;;2.70;0.80;;;3.40;99.90;;;;;;5066497;28;20033;-51
2022/02/25 03:39:47;;;;;;;5.68;1.42;;;3.50;99.90;;;;;;5049096;28;20084;-55
2022/02/25 03:43:12;;;;;;;5.70;1.35;;;3.60;99.90;;;;;;5084818;28;20517;-57
2022/02/25 03:46:38;;;;;;;7.43;1.17;;;3.70;99.90;;;;;;5066714;28;20079;-57
2022/02/25 03:50:03;;;;;;;6.15;1.58;;;3.70;99.90;;;;;;5075373;28;20601;-55
2022/02/25 03:53:29;;;;;;;2.78;1.23;;;3.70;99.90;;;;;;5077132;28;20064;-54
2022/02/25 03:56:54;;;;;;;3.40;1.52;;;3.80;99.90;;;;;;5083959;28;20046;-54
2022/02/25 04:00:19;;;;;;;6.80;1.83;;;3.80;99.90;;;;;;5075241;28;20120;-53
2022/02/25 04:03:45;;;;;;;5.85;1.35;;;3.80;99.90;;;;;;5048459;28;20048;-56
2022/02/25 04:07:10;;;;;;;2.67;0.82;;;3.70;99.90;;;;;;5077491;28;20410;-55
2022/02/25 04:10:35;;;;;;;4.97;0.85;;;3.70;99.90;;;;;;5087062;28;20040;-56
2022/02/25 04:14:01;;;;;;;3.75;1.13;;;3.60;99.90;;;;;;5086860;28;20524;-54
2022/02/25 04:17:29;;;;;;;7.38;2.08;;;3.40;99.90;;;;;;5086547;28;20039;-56
2022/02/25 04:20:34;;;;;;;;;;;3.40;99.90;;;;;;5088175;28;20039;-56
2022/02/25 04:24:00;;;;;;;3.97;1.75;;;3.20;99.90;;;;;;5067745;28;19915;-56
2022/02/25 04:27:25;;;;;;;4.32;1.90;;;3.10;99.90;;;;;;5080681;28;20397;-55
2022/02/25 04:30:50;;;;;;;4.20;1.60;;;2.90;99.90;;;;;;5085356;28;20135;-55
2022/02/25 04:34:16;;;;;;;9.13;2.00;;;2.80;99.90;;;;;;5073075;28;20032;-56
2022/02/25 04:37:41;;;;;;;4.60;1.80;;;2.60;99.90;;;;;;5080876;28;20098;-53
2022/02/25 04:41:07;;;;;;;3.88;1.05;;;2.60;99.90;;;;;;5080870;28;20043;-53
2022/02/25 04:44:32;;;;;;;4.28;1.60;;;2.60;99.90;;;;;;5069661;28;20527;-56
2022/02/25 04:47:57;;;;;;;6.38;1.35;;;2.70;99.90;;;;;;5086428;28;20069;-51
2022/02/25 04:50:26;;;;;;;7.13;1.77;;;2.80;99.90;;;;;;5091887;28;20032;-55
2022/02/25 04:53:31;;;;;;;2.53;1.25;;;2.80;99.90;;;;;;5089685;28;20036;-54
2022/02/25 04:56:57;;;;;;;7.60;1.80;;;2.90;99.90;;;;;;5052975;28;20416;-53
2022/02/25 05:00:23;;;;;;;4.45;2.05;;;3.00;99.90;;;;;;5084287;28;20032;-54
2022/02/25 05:03:48;;;;;;;4.43;1.13;;;3.00;99.90;;;;;;5070995;28;20066;-56
2022/02/25 05:07:13;;;;;;;3.22;1.35;;;3.10;99.90;;;;;;5079828;28;20036;-53
2022/02/25 05:10:38;;;;;;;5.53;1.55;;;3.10;99.90;;;;;;5080404;28;20122;-57
2022/02/25 05:14:04;;;;;;;6.55;1.77;;;3.10;99.90;;;;;;5082083;28;20059;-54
2022/02/25 05:20:53;;;;;;;2.67;1.27;;;3.10;99.90;;;;;;5051013;28;20090;-56
2022/02/25 05:24:18;;;;;;;7.18;1.90;;;2.90;99.90;;;;;;5087619;28;20075;-54
2022/02/25 05:27:44;;;;;;;4.30;1.55;;;2.70;99.90;;;;;;5079577;28;20446;-57
2022/02/25 05:31:09;;;;;;;7.13;1.45;;;2.50;99.90;;;;;;5051003;28;20037;-51
2022/02/25 05:34:34;;;;;;;7.38;1.83;;;2.30;99.90;;;;;;5087162;28;20059;-51
2022/02/25 05:38:00;;;;;;;10.93;2.65;;;2.20;99.90;;;;;;5074397;28;20036;-55
2022/02/25 05:41:25;;;;;;;10.25;2.63;;;2.10;99.90;;;;;;5085056;28;20071;-54
2022/02/25 05:44:50;;;;;;;7.60;1.73;;;1.90;99.90;;;;;;5079601;28;20044;-54
2022/02/25 05:48:16;;;;;;;7.78;2.83;;;1.80;99.90;;;;;;5073619;28;20663;-51
2022/02/25 05:51:41;;;;;;;6.97;2.13;;;1.70;99.90;;;;;;5050610;28;20041;-53
2022/02/25 05:55:06;;;;;;;4.57;1.75;;;1.60;99.90;;;;;;5082655;28;20532;-53
2022/02/25 05:58:32;;;;;;;7.57;2.03;;;1.50;99.90;;;;;;5070525;28;20040;-55
2022/02/25 06:01:57;;;;;;;4.90;1.83;;;1.40;99.90;;;;;;5079132;28;20052;-53
2022/02/25 06:05:23;;;;;;;4.57;1.63;;;1.40;99.90;;;;;;5086772;28;20044;-54
2022/02/25 06:08:48;;;;;;;3.92;1.63;;;1.30;99.90;;;;;;5069081;28;20033;-54
2022/02/25 06:11:33;;;;;;;6.05;1.70;;;1.30;99.90;;;;;;5067250;28;20032;-54
2022/02/25 06:14:39;;;;;;;6.07;1.67;;;1.30;99.90;;;;;;5089638;28;20039;-55
2022/02/25 06:18:04;;;;;;;5.78;1.65;;;1.40;99.90;;;;;;5084539;28;20040;-57
2022/02/25 06:21:29;;;;;;;5.05;1.85;;;1.50;99.90;;;;;;5075516;28;20063;-56
2022/02/25 06:24:55;;;;;;;6.07;2.55;;;1.50;99.90;;;;;;5049368;28;20055;-57
2022/02/25 06:28:20;;;;;;;6.50;2.35;;;1.60;99.90;;;;;;5049422;28;20021;-58
2022/02/25 06:31:45;;;;;;;3.13;1.50;;;1.70;99.90;;;;;;5068985;28;20032;-57
2022/02/25 06:35:11;;;;;;;9.02;2.00;;;1.70;99.90;;;;;;5078335;28;20061;-56
2022/02/25 06:38:36;;;;;;;5.35;1.92;;;1.80;99.90;;;;;;5083040;28;20089;-55
2022/02/25 06:42:02;;;;;;;1.95;1.40;;;2.00;99.90;;;;;;5065601;28;20048;-57
2022/02/25 06:45:27;;;;;;;5.60;1.60;;;2.20;99.90;;;;;;5087073;28;20629;-56
2022/02/25 06:48:52;;;;;;;6.28;1.42;;;2.50;99.90;;;;;;5089019;28;20040;-57
2022/02/25 06:52:18;;;;;;;4.32;1.98;;;4.40;99.90;;;;;;5078087;28;20515;-57
2022/02/25 06:55:43;;;;;;;4.65;1.90;;;6.20;99.90;;;;;;5075059;28;20036;-56
2022/02/25 06:59:09;;;;;;;7.07;2.10;;;7.90;88.80;;;;;;5088786;28;20419;-58
2022/02/25 07:02:34;;;;;;;5.10;1.58;;;9.30;67.90;;;;;;5082333;28;20043;-58
2022/02/25 07:05:59;;;;;;;5.35;1.98;;;10.50;58.00;;;;;;5075820;28;20472;-58
2022/02/25 07:09:25;;;;;;;3.40;1.75;;;11.70;46.50;;;;;;5048875;28;20037;-57
2022/02/25 07:12:50;;;;;;;7.32;2.10;;;12.90;35.10;;;;;;5081307;28;20086;-58
2022/02/25 07:16:15;;;;;;;6.97;1.73;;;13.80;30.10;;;;;;5069228;28;20046;-55
2022/02/25 07:19:41;;;;;;;3.80;1.70;;;12.00;35.80;;;;;;5077721;28;20032;-56
2022/02/25 07:23:06;;;;;;;5.85;2.08;;;9.90;46.00;;;;;;5084590;28;20554;-54
2022/02/25 07:26:31;;;;;;;7.10;2.63;;;8.50;59.40;;;;;;5086541;28;20071;-57
2022/02/25 07:29:57;;;;;;;4.55;1.95;;;7.40;73.00;;;;;;5084845;28;20407;-57
2022/02/25 07:33:23;;;;;;;4.80;2.20;;;6.70;83.80;;;;;;5077170;28;20078;-57
2022/02/25 07:36:48;;;;;;;3.97;1.40;;;6.10;90.60;;;;;;5064066;28;20094;-57
2022/02/25 07:40:13;;;;;;;2.85;1.50;;;5.80;93.80;;;;;;5084505;28;20064;-56
2022/02/25 07:43:38;;;;;;;4.95;2.00;;;5.60;92.50;;;;;;5086359;28;20043;-56
2022/02/25 07:47:04;;;;;;;5.30;2.30;;;5.60;94.70;;;;;;5071723;28;20057;-56
2022/02/25 07:50:29;;;;;;;4.07;1.88;;;5.40;93.40;;;;;;5078422;28;20032;-55
2022/02/25 07:53:55;;;;;;;6.18;2.03;;;5.50;94.60;;;;;;5092556;28;20128;-58
2022/02/25 07:57:20;;;;;;;10.55;2.63;;;5.40;93.80;;;;;;5081741;28;20086;-56
2022/02/25 08:00:45;;;;;;;4.80;2.58;;;5.50;93.50;;;;;;5055605;28;20491;-57
2022/02/25 08:04:11;;;;;;;8.43;2.00;;;5.70;93.00;;;;;;5092099;28;20036;-56
2022/02/25 08:07:36;;;;;;;7.13;1.88;;;6.10;91.20;;;;;;5086156;28;20319;-56
2022/02/25 08:11:03;;;;;;;3.40;2.25;;;7.20;79.90;;;;;;5078410;28;20574;-57
2022/02/25 08:14:27;;;;;;;5.50;2.83;;;8.20;68.60;;;;;;5080168;28;20040;-58
2022/02/25 08:17:53;;;;;;;5.35;2.85;;;8.80;56.20;;;;;;5088501;28;20411;-55
2022/02/25 08:21:17;;;;;;;18.73;4.60;;;9.40;52.00;;;;;;5086155;28;20036;-58
2022/02/25 08:24:43;;;;;;;15.80;3.35;;;10.30;45.60;;;;;;5078861;28;20553;-58
2022/02/25 08:28:08;;;;;;;4.70;1.83;;;11.90;40.70;;;;;;5080683;28;20036;-57
2022/02/25 08:31:33;;;;;;;5.70;2.30;;;12.40;37.70;;;;;;5069327;28;20039;-56
2022/02/25 08:34:59;;;;;;;5.85;2.00;;;14.60;28.60;;;;;;5080566;28;20047;-58
2022/02/25 08:38:24;;;;;;;6.38;1.50;;;15.60;21.10;;;;;;5080694;28;20032;-56
2022/02/25 08:41:50;;;;;;;4.60;1.35;;;16.60;19.80;;;;;;5072538;28;20037;-56
2022/02/25 08:45:15;;;;;;;6.30;1.65;;;17.50;14.60;;;;;;5080464;28;20445;-54
2022/02/25 08:48:40;;;;;;;3.40;1.65;;;18.10;18.60;;;;;;5085830;28;20028;-56
2022/02/25 08:52:09;;;;;;;7.40;1.95;;;18.10;13.80;;;;;;5064500;28;20079;-55
2022/02/25 08:55:31;;;;;;;3.22;1.38;;;18.10;15.40;;;;;;5076042;28;20063;-55
2022/02/25 08:58:56;;;;;;;5.93;1.98;;;18.10;12.70;;;;;;5091114;28;20040;-56
2022/02/25 09:02:22;;;;;;;6.65;1.83;;;18.30;12.60;;;;;;5080930;28;20537;-57
2022/02/25 09:05:47;;;;;;;5.70;1.17;;;18.60;10.60;;;;;;5079479;28;20620;-56
2022/02/25 09:09:13;;;;;;;4.57;1.50;;;18.70;10.70;;;;;;5090991;28;20048;-56
2022/02/25 09:12:38;;;;;;;4.60;1.58;;;18.60;11.50;;;;;;5085481;28;20559;-56
2022/02/25 09:16:04;;;;;;;5.38;1.63;;;18.40;9.70;;;;;;5077771;28;20039;-56
2022/02/25 09:19:29;;;;;;;7.40;1.73;;;17.70;12.80;;;;;;5050866;28;20094;-55
2022/02/25 09:22:54;;;;;;;6.00;1.60;;;18.00;10.60;;;;;;5087605;28;20046;-55
2022/02/25 09:26:19;;;;;;;4.30;1.77;;;18.30;11.40;;;;;;5070469;28;20048;-55
2022/02/25 09:29:45;;;;;;;4.43;1.30;;;18.40;11.60;;;;;;5079067;28;20077;-56
2022/02/25 09:33:10;;;;;;;11.45;1.83;;;17.90;8.60;;;;;;5079538;28;20158;-57
2022/02/25 09:36:36;;;;;;;7.22;2.00;;;17.70;9.40;;;;;;5073226;28;20032;-56
2022/02/25 09:40:01;;;;;;;6.28;1.63;;;17.90;9.50;;;;;;5084285;28;20479;-55
2022/02/25 09:43:26;;;;;;;7.57;2.03;;;15.90;13.30;;;;;;5072074;28;20036;-56
2022/02/25 09:46:52;;;;;;;5.82;1.80;;;13.80;15.80;;;;;;5065547;28;20036;-56
2022/02/25 09:50:17;;;;;;;5.53;1.35;;;14.10;14.70;;;;;;5078610;28;20032;-54
2022/02/25 09:53:42;;;;;;;6.03;1.42;;;13.70;17.00;;;;;;5086748;28;20403;-56
2022/02/25 09:57:08;;;;;;;7.20;1.60;;;13.90;15.90;;;;;;5070687;28;20129;-56
2022/02/25 10:00:33;;;;;;;7.50;1.75;;;13.20;17.80;;;;;;5084581;28;20507;-55
2022/02/25 10:03:59;;;;;;;7.78;1.92;;;12.00;19.90;;;;;;5089993;28;20445;-53
2022/02/25 10:07:42;;;;;;;4.75;1.63;;;11.50;22.00;;;;;;5079499;28;20037;-55
2022/02/25 10:11:08;;;;;;;5.47;1.42;;;11.10;22.90;;;;;;5086544;28;20310;-54
2022/02/25 10:14:33;;;;;;;5.10;1.63;;;10.60;25.20;;;;;;5049530;28;20033;-51
2022/02/25 10:17:59;;;;;;;6.45;1.73;;;10.60;26.10;;;;;;5078524;28;20040;-56
2022/02/25 10:21:24;;;;;;;7.05;1.50;;;10.60;26.20;;;;;;5083830;28;20028;-56
2022/02/25 10:24:49;;;;;;;8.60;1.98;;;10.40;26.90;;;;;;5078077;28;20471;-51
2022/02/25 10:28:17;;;;;;;3.25;1.20;;;10.30;26.50;;;;;;5085889;28;20042;-56
2022/02/25 10:31:39;;;;;;;3.08;1.20;;;10.10;26.90;;;;;;5072858;28;20423;-56
2022/02/25 10:35:04;;;;;;;5.70;1.77;;;9.70;28.00;;;;;;5072340;28;20496;-54
2022/02/25 10:38:48;;;;;;;6.72;2.00;;;9.70;29.40;;;;;;5078059;28;20028;-55
2022/02/25 10:42:06;;;;;;;5.93;1.67;;;9.90;28.30;;;;;;5070665;28;20044;-54
2022/02/25 10:44:54;;;;;;;5.47;1.65;;;10.00;28.70;;;;;;5087227;28;20028;-54
2022/02/25 10:48:19;;;;;;;5.68;1.70;;;10.10;29.00;;;;;;5089033;28;20058;-54
2022/02/25 10:51:07;;;;;;;7.03;1.73;;;9.90;28.50;;;;;;5070233;28;20052;-62
2022/02/25 10:53:48;;;;;;;6.25;1.35;;;9.80;28.60;;;;;;5088745;28;20103;-62
2022/02/25 10:56:19;;;;;;;5.28;1.60;;;9.70;28.90;;;;;;5071681;28;20035;-62
2022/02/25 10:58:52;;;;;;;5.20;1.67;;;9.40;29.20;;;;;;5049165;28;20103;-62
2022/02/25 11:01:33;;;;;;;7.63;1.73;;;9.40;29.30;;;;;;5073611;28;20492;-62
2022/02/25 11:04:11;;;;;;;5.93;1.88;;;9.50;29.40;;;;;;5049051;28;20091;-62
2022/02/25 11:06:37;;;;;;;7.80;1.88;;;9.60;29.00;;;;;;5062316;28;20099;-62
2022/02/25 11:09:05;;;;;;;5.03;1.40;;;9.80;28.60;;;;;;5088359;28;20149;-62
2022/02/25 11:11:32;;;;;;;9.20;2.95;;;9.80;27.70;;;;;;5072610;28;20020;-63
2022/02/25 11:14:01;;;;;;;3.97;1.30;;;9.80;26.40;;;;;;5088284;28;20369;-63
2022/02/25 11:16:27;;;;;;;9.02;1.95;;;9.60;26.60;;;;;;5072800;28;20162;-62
2022/02/25 11:18:54;;;;;;;6.60;1.60;;;9.50;26.70;;;;;;5088367;28;20031;-62
2022/02/25 11:21:21;;;;;;;5.68;1.52;;;9.20;26.60;;;;;;5073655;28;20111;-62
2022/02/25 11:23:48;;;;;;;4.85;1.70;;;9.10;26.60;;;;;;5088219;28;20098;-63
2022/02/25 11:26:16;;;;;;;5.97;1.83;;;9.00;27.00;;;;;;5074658;28;20032;-63
2022/02/25 11:28:43;;;;;;;5.70;1.50;;;9.10;27.30;;;;;;5088506;28;20113;-63
2022/02/25 11:31:19;;;;;;;5.13;1.10;;;9.00;26.90;;;;;;5075584;28;20361;-63
2022/02/25 11:33:50;;;;;;;5.07;1.27;;;9.00;27.00;;;;;;5088482;28;20487;-63
2022/02/25 11:36:16;;;;;;;5.88;1.58;;;8.90;27.70;;;;;;5059315;28;20033;-62
2022/02/25 11:38:46;;;;;;;4.38;1.33;;;8.90;27.80;;;;;;5088062;28;20028;-62
2022/02/25 11:41:22;;;;;;;5.65;1.73;;;8.90;27.70;;;;;;5074824;28;20484;-63
2022/02/25 11:43:52;;;;;;;3.03;1.23;;;8.80;27.60;;;;;;5048927;28;20025;-63
2022/02/25 11:46:23;;;;;;;4.35;1.60;;;8.80;28.10;;;;;;5059305;28;20041;-63
2022/02/25 11:48:56;;;;;;;7.63;1.85;;;8.70;28.80;;;;;;5088141;28;20170;-63
2022/02/25 11:51:41;;;;;;;5.03;1.30;;;8.60;28.90;;;;;;5073265;28;20227;-63
2022/02/25 11:54:27;;;;;;;4.90;1.70;;;8.60;28.80;;;;;;5048663;28;20091;-63
2022/02/25 11:56:56;;;;;;;6.43;1.70;;;8.70;28.30;;;;;;5064478;28;20060;-63
2022/02/25 11:59:25;;;;;;;6.03;1.63;;;8.80;28.60;;;;;;5087697;28;20035;-62
2022/02/25 12:02:01;;;;;;;6.32;1.52;;;8.80;29.00;;;;;;5069016;28;20033;-62
2022/02/25 12:04:29;;;;;;;8.25;1.80;;;8.70;29.30;;;;;;5048244;28;20021;-63
2022/02/25 12:07:00;;;;;;;4.53;1.70;;;8.50;29.90;;;;;;5067996;28;20345;-63
2022/02/25 12:09:44;;;;;;;5.70;1.60;;;8.50;30.60;;;;;;5088274;28;20039;-62
2022/02/25 12:12:26;;;;;;;3.53;1.33;;;8.30;31.10;;;;;;5066456;28;20054;-62
2022/02/25 12:15:18;;;;;;;4.75;1.27;;;8.30;31.80;;;;;;5085866;28;20031;-62
2022/02/25 12:17:51;;;;;;;4.72;1.20;;;8.20;32.10;;;;;;5088163;28;20561;-63
2022/02/25 12:20:19;;;;;;;4.90;1.73;;;8.20;32.10;;;;;;5086202;28;20032;-62
2022/02/25 12:23:05;;;;;;;3.75;1.38;;;8.10;32.40;;;;;;5087914;28;20123;-63
2022/02/25 12:25:39;;;;;;;8.43;1.57;;;8.00;33.00;;;;;;5086558;28;20039;-64
2022/02/25 12:28:14;;;;;;;7.05;2.15;;;7.90;33.70;;;;;;5088419;28;20289;-63
2022/02/25 12:30:40;;;;;;;5.85;2.08;;;7.80;34.10;;;;;;5090018;28;20551;-63
2022/02/25 12:33:28;;;;;;;6.85;2.60;;;7.70;34.90;;;;;;5092091;28;20392;-63
2022/02/25 12:35:56;;;;;;;7.85;2.47;;;7.70;35.50;;;;;;5089788;28;20024;-63
2022/02/25 12:38:23;;;;;;;7.38;1.90;;;7.70;35.90;;;;;;5091893;28;20299;-62
2022/02/25 12:40:50;;;;;;;5.28;1.45;;;7.80;36.40;;;;;;5089914;28;20258;-63
2022/02/25 12:43:17;;;;;;;5.85;1.60;;;7.80;37.50;;;;;;5087873;28;20032;-61
2022/02/25 12:45:42;;;;;;;6.38;2.05;;;8.00;36.70;;;;;;5089655;28;20058;-63
2022/02/25 12:48:08;;;;;;;6.40;2.38;;;8.00;36.70;;;;;;5091585;28;20066;-63
2022/02/25 12:50:44;;;;;;;5.57;2.00;;;7.90;36.60;;;;;;5089526;28;20040;-62
2022/02/25 12:53:10;;;;;;;7.03;1.70;;;7.90;36.40;;;;;;5091576;28;20024;-62
2022/02/25 12:55:51;;;;;;;4.57;1.38;;;8.00;36.20;;;;;;5089507;28;20032;-63
2022/02/25 12:58:17;;;;;;;8.25;2.17;;;8.00;36.30;;;;;;5091482;28;20380;-62
2022/02/25 13:00:56;;;;;;;5.55;1.52;;;8.20;36.80;;;;;;5089371;28;20028;-63
2022/02/25 13:03:21;;;;;;;7.57;1.90;;;8.20;37.20;;;;;;5091147;28;20040;-63
2022/02/25 13:05:54;;;;;;;3.85;1.73;;;8.10;37.90;;;;;;5089489;28;20039;-63
2022/02/25 13:08:20;;;;;;;4.95;2.15;;;7.90;41.80;;;;;;5091263;28;20031;-62
2022/02/25 13:10:57;;;;;;;4.32;1.80;;;7.90;43.00;;;;;;5089134;28;20032;-63
2022/02/25 13:13:22;;;;;;;3.30;1.85;;;7.80;47.30;;;;;;5051103;28;20116;-62
2022/02/25 13:15:48;;;;;;;10.52;3.28;;;7.40;48.30;;;;;;5087868;28;20032;-63
2022/02/25 13:18:21;;;;;;;7.63;2.50;;;7.30;50.10;;;;;;5072903;28;20043;-63
2022/02/25 13:21:00;;;;;;;7.97;1.65;;;7.10;55.20;;;;;;5090693;28;20032;-63
2022/02/25 13:24:09;;;;;;;2.78;1.30;;;6.90;57.40;;;;;;5079552;28;20048;-62
2022/02/25 13:27:37;;;;;;;7.20;2.38;;;6.80;59.40;;;;;;5053983;28;20021;-62
2022/02/25 13:31:03;;;;;;;9.40;2.10;;;6.70;71.30;;;;;;5050686;28;20519;-62
2022/02/25 13:34:28;;;;;;;3.70;2.00;;;6.50;77.10;;;;;;5085042;28;20032;-62
2022/02/25 13:37:53;;;;;;;4.60;1.83;;;6.40;84.20;;;;;;5077601;28;20530;-63
2022/02/25 13:40:39;;;;;;;3.97;1.67;;;6.40;90.20;;;;;;5086536;28;20043;-63
2022/02/25 13:44:07;;;;;;;5.78;2.05;;;6.30;89.30;;;;;;5058953;28;20131;-63
2022/02/25 13:52:19;;;;;;;;;;;6.30;88.20;;;;;;5078061;28;20104;-63
2022/02/25 13:53:38;;;;;;;12.63;1.98;;;6.30;86.20;;;;;;5067303;28;20039;-63
2022/02/25 13:56:06;;;;;;;4.57;1.70;;;6.30;79.80;;;;;;5070385;28;20036;-63
2022/02/25 13:59:17;;;;;;;5.85;1.95;;;6.30;80.80;;;;;;5090248;28;20165;-64
2022/02/25 14:02:28;;;;;;;4.00;1.45;;;6.30;82.90;;;;;;5086757;28;20047;-63
2022/02/25 14:05:54;;;;;;;5.78;1.70;;;6.40;81.20;;;;;;5064091;28;20032;-63
2022/02/25 14:09:22;;;;;;;5.80;2.08;;;6.40;76.80;;;;;;5050289;28;20075;-63
2022/02/25 14:12:48;;;;;;;4.57;1.40;;;6.40;72.70;;;;;;5061992;28;20028;-63
2022/02/25 14:16:13;;;;;;;6.15;1.67;;;6.40;71.50;;;;;;5067168;28;20496;-63
2022/02/25 14:19:51;;;;;;;6.72;1.40;;;6.50;70.20;;;;;;5071388;28;20033;-66
2022/02/25 14:23:22;;;;;;;4.53;1.58;;;6.50;70.60;;;;;;5069473;28;20419;-61
2022/02/25 14:26:47;;;;;;;8.00;1.80;;;6.50;68.60;;;;;;5050482;28;20040;-63
2022/02/25 14:30:15;;;;;;;4.57;1.52;;;6.50;68.00;;;;;;5050021;28;20037;-63
2022/02/25 14:33:33;;;;;;;9.05;1.60;;;6.40;69.40;;;;;;5084619;28;20441;-63
2022/02/25 14:36:58;;;;;;;2.40;1.08;;;6.20;76.10;;;;;;5061936;28;20459;-62
2022/02/25 14:40:24;;;;;;;5.65;1.95;;;6.00;85.20;;;;;;5074655;28;20025;-63
2022/02/25 14:43:49;;;;;;;4.68;1.90;;;5.80;99.90;;;;;;5054398;28;20089;-63
2022/02/25 14:47:01;;;;;;;4.03;1.70;;;5.70;99.90;;;;;;5049444;28;20032;-64
2022/02/25 14:50:27;;;;;;;3.35;1.40;;;5.70;99.90;;;;;;5042834;28;20060;-63
2022/02/25 14:53:52;;;;;;;5.68;1.40;;;5.70;99.90;;;;;;5066438;28;20106;-64
2022/02/25 14:57:17;;;;;;;5.10;1.73;;;5.70;99.90;;;;;;5069262;28;20071;-63
2022/02/25 15:00:43;;;;;;;6.75;1.20;;;5.70;99.90;;;;;;5073288;28;20373;-63
2022/02/25 15:04:08;;;;;;;10.25;2.80;;;5.70;99.90;;;;;;5067095;28;20500;-65
2022/02/25 15:07:33;;;;;;;6.90;2.63;;;5.60;99.90;;;;;;5063264;28;20052;-64
2022/02/25 15:10:42;;;;;;;9.27;2.20;;;5.50;99.90;;;;;;5056984;28;20048;-65
2022/02/25 15:14:13;;;;;;;4.05;1.65;;;5.30;99.90;;;;;;5055724;28;20640;-64
2022/02/25 15:17:33;;;;;;;6.20;2.00;;;5.20;99.90;;;;;;5067934;28;20029;-64
2022/02/25 15:20:58;;;;;;;8.75;2.38;;;5.10;99.90;;;;;;5086948;28;20485;-65
2022/02/25 15:24:24;;;;;;;8.10;1.92;;;5.00;99.90;;;;;;5068876;28;20048;-65
2022/02/25 15:27:49;;;;;;;3.97;1.67;;;4.90;99.90;;;;;;5077552;28;20439;-64
2022/02/25 15:31:14;;;;;;;7.43;1.55;;;4.80;99.90;;;;;;5083369;28;20043;-64
2022/02/25 15:34:40;;;;;;;9.45;1.98;;;4.70;99.90;;;;;;5066410;28;20551;-65
2022/02/25 15:38:05;;;;;;;3.53;1.85;;;4.80;99.90;;;;;;5077039;28;20043;-65
2022/02/25 15:41:31;;;;;;;7.20;1.85;;;4.80;99.90;;;;;;5077489;28;20036;-65
2022/02/25 15:44:56;;;;;;;8.23;2.08;;;4.80;99.90;;;;;;5064058;28;20045;-63
2022/02/25 15:48:21;;;;;;;5.07;2.17;;;4.90;99.90;;;;;;5077596;28;20036;-65
2022/02/25 15:51:47;;;;;;;14.52;1.77;;;4.90;99.90;;;;;;5077672;28;20036;-65
2022/02/25 15:55:12;;;;;;;4.55;1.50;;;5.00;99.90;;;;;;5074133;28;20032;-65
2022/02/25 15:58:37;;;;;;;8.32;2.45;;;5.00;99.90;;;;;;5047715;28;20091;-64
2022/02/25 16:02:03;;;;;;;7.78;2.42;;;5.10;99.90;;;;;;5088483;28;20066;-65
2022/02/25 16:05:28;;;;;;;4.18;1.83;;;5.10;99.90;;;;;;5069238;28;20037;-64
2022/02/25 16:08:54;;;;;;;10.98;2.90;;;5.10;99.90;;;;;;5056319;28;20449;-65
2022/02/25 16:12:19;;;;;;;5.63;2.03;;;5.00;99.90;;;;;;5092531;28;20028;-64
2022/02/25 16:15:44;;;;;;;9.13;2.40;;;5.00;99.90;;;;;;5086706;28;20694;-64
2022/02/25 16:19:10;;;;;;;8.43;2.13;;;4.90;99.90;;;;;;5079316;28;20073;-65
2022/02/25 16:22:35;;;;;;;5.55;1.73;;;4.90;99.90;;;;;;5052154;28;20405;-65
2022/02/25 16:26:00;;;;;;;3.97;2.00;;;4.80;99.90;;;;;;5088458;28;20044;-64
2022/02/25 16:29:26;;;;;;;8.15;1.70;;;4.80;99.90;;;;;;5072047;28;20409;-65
2022/02/25 16:32:51;;;;;;;10.77;4.20;;;4.70;99.90;;;;;;5081052;28;20032;-65
2022/02/25 16:36:17;;;;;;;5.07;2.33;;;4.60;99.90;;;;;;5080951;28;20592;-64
2022/02/25 16:39:42;;;;;;;5.90;2.47;;;4.40;99.90;;;;;;5069300;28;20047;-65
2022/02/25 16:43:07;;;;;;;6.97;2.40;;;4.30;99.90;;;;;;5081330;28;20044;-64
2022/02/25 16:46:33;;;;;;;7.35;2.53;;;4.20;99.90;;;;;;5080362;28;20028;-65
2022/02/25 16:49:58;;;;;;;8.23;3.10;;;4.20;99.90;;;;;;5066819;28;20032;-64
2022/02/25 16:52:30;;;;;;;4.80;1.92;;;4.30;99.90;;;;;;5051724;28;20108;-60
2022/02/25 16:54:56;;;;;;;8.90;2.45;;;4.30;99.90;;;;;;5071792;28;20170;-60
2022/02/25 16:58:01;;;;;;;6.95;2.33;;;4.30;99.90;;;;;;5091191;28;20036;-60
2022/02/25 17:01:27;;;;;;;10.52;2.10;;;4.30;99.90;;;;;;5087977;28;20502;-60
2022/02/25 17:04:52;;;;;;;9.52;2.78;;;4.20;99.90;;;;;;5067314;28;20044;-60
2022/02/25 17:08:17;;;;;;;6.03;2.38;;;4.20;99.90;;;;;;5080280;28;20674;-60